createdAt,value
2022-11-24T00:00:45.119Z,2.87
2022-11-24T00:03:28.585Z,2.97
2022-11-24T00:06:05.645Z,3.22
2022-11-24T00:08:39.175Z,2.99
2022-11-24T00:11:14.032Z,3.31
2022-11-24T00:13:46.221Z,3.34
2022-11-24T00:16:23.092Z,3.32
2022-11-24T00:18:56.940Z,3.03
2022-11-24T00:21:33.577Z,2.89
2022-11-24T00:24:05.845Z,3.34
2022-11-24T00:26:40.589Z,3.14
2022-11-24T00:29:14.540Z,3.43
2022-11-24T00:31:49.324Z,3.16
2022-11-24T00:34:21.050Z,3.29
2022-11-24T00:36:55.189Z,3.31
2022-11-24T00:39:29.773Z,3.33
2022-11-24T00:42:02.537Z,3.14
2022-11-24T00:44:34.552Z,3.22
2022-11-24T00:47:09.732Z,3.15
2022-11-24T00:49:42.969Z,3.00
2022-11-24T00:52:15.136Z,3.14
2022-11-24T00:54:46.801Z,2.99
2022-11-24T00:57:19.028Z,2.98
2022-11-24T00:59:50.981Z,3.12
2022-11-24T01:02:25.601Z,3.16
2022-11-24T01:04:57.421Z,3.10
2022-11-24T01:07:29.630Z,3.21
2022-11-24T01:10:03.420Z,3.09
2022-11-24T01:12:35.341Z,3.18
2022-11-24T01:15:07.521Z,3.24
2022-11-24T01:17:44.335Z,3.05
2022-11-24T01:20:16.058Z,3.16
2022-11-24T01:22:51.351Z,3.06
2022-11-24T01:25:25.422Z,2.98
2022-11-24T01:27:59.337Z,2.90
2022-11-24T01:30:31.073Z,2.73
2022-11-24T01:33:06.676Z,2.76
2022-11-24T01:35:39.650Z,2.72
2022-11-24T01:38:13.995Z,2.77
2022-11-24T01:40:45.648Z,2.42
2022-11-24T01:43:21.281Z,2.54
2022-11-24T01:45:53.164Z,2.65
2022-11-24T01:48:31.056Z,2.84
2022-11-24T01:51:11.522Z,3.08
2022-11-24T01:53:47.716Z,3.00
2022-11-24T01:56:19.695Z,3.08
2022-11-24T01:58:54.686Z,2.95
2022-11-24T02:01:26.701Z,3.06
2022-11-24T02:04:04.847Z,3.10
2022-11-24T02:06:39.133Z,3.14
2022-11-24T02:09:17.008Z,3.09
2022-11-24T02:11:50.441Z,3.37
2022-11-24T02:14:25.515Z,3.47
2022-11-24T02:16:57.586Z,3.15
2022-11-24T02:19:44.856Z,3.09
2022-11-24T02:22:24.106Z,3.09
2022-11-24T02:25:02.236Z,3.12
2022-11-24T02:27:37.013Z,2.92
2022-11-24T02:30:10.145Z,3.05
2022-11-24T02:32:44.726Z,3.15
2022-11-24T02:35:17.366Z,2.95
2022-11-24T02:37:49.206Z,3.15
2022-11-24T02:40:25.924Z,3.16
2022-11-24T02:43:05.296Z,3.06
2022-11-24T02:45:37.289Z,3.01
2022-11-24T02:48:10.090Z,3.14
2022-11-24T02:51:01.812Z,3.07
2022-11-24T02:53:34.846Z,3.40
2022-11-24T02:56:07.075Z,3.39
2022-11-24T02:58:41.536Z,3.09
2022-11-24T03:01:13.728Z,2.64
2022-11-24T03:03:46.219Z,2.65
2022-11-24T03:06:18.628Z,2.80
2022-11-24T03:08:50.394Z,2.78
2022-11-24T03:11:24.813Z,3.01
2022-11-24T03:14:01.168Z,3.12
2022-11-24T03:16:33.268Z,3.02
2022-11-24T03:19:05.392Z,3.01
2022-11-24T03:21:40.638Z,2.81
2022-11-24T03:24:13.037Z,2.49
2022-11-24T03:26:45.124Z,2.28
2022-11-24T03:29:20.609Z,2.13
2022-11-24T03:31:52.369Z,2.39
2022-11-24T03:34:24.073Z,2.53
2022-11-24T03:36:56.116Z,2.42
2022-11-24T03:39:27.713Z,2.48
2022-11-24T03:41:59.634Z,2.65
2022-11-24T03:44:34.069Z,2.83
2022-11-24T03:47:21.153Z,2.57
2022-11-24T03:49:53.093Z,2.89
2022-11-24T03:52:26.963Z,2.73
2022-11-24T03:54:58.602Z,2.60
2022-11-24T03:57:30.484Z,2.88
2022-11-24T04:00:06.858Z,2.88
2022-11-24T04:02:39.035Z,2.81
2022-11-24T04:05:11.584Z,2.81
2022-11-24T04:07:43.875Z,2.90
2022-11-24T04:10:17.345Z,2.88
2022-11-24T04:12:48.422Z,2.67
2022-11-24T04:15:23.130Z,2.57
2022-11-24T04:17:59.876Z,2.78
2022-11-24T04:20:34.347Z,2.97
2022-11-24T04:23:09.268Z,2.42
2022-11-24T04:25:41.949Z,2.70
2022-11-24T04:28:14.604Z,2.77
2022-11-24T04:30:52.356Z,2.80
2022-11-24T04:33:24.756Z,2.53
2022-11-24T04:35:57.382Z,2.28
2022-11-24T04:39:19.416Z,2.25
2022-11-24T04:41:25.680Z,2.51
2022-11-24T04:43:58.216Z,2.69
2022-11-24T04:46:32.766Z,2.50
2022-11-24T04:49:05.827Z,2.58
2022-11-24T04:51:37.774Z,2.69
2022-11-24T04:54:11.160Z,2.93
2022-11-24T04:56:44.273Z,2.79
2022-11-24T04:59:17.775Z,2.86
2022-11-24T05:01:52.474Z,2.91
2022-11-24T05:04:25.562Z,2.95
2022-11-24T05:06:57.647Z,2.84
2022-11-24T05:09:54.948Z,3.05
2022-11-24T05:12:24.820Z,2.85
2022-11-24T05:14:56.697Z,3.04
2022-11-24T05:17:34.292Z,3.03
2022-11-24T05:20:09.082Z,3.33
2022-11-24T05:22:40.536Z,3.22
2022-11-24T05:25:13.230Z,3.16
2022-11-24T05:31:08.927Z,2.93
2022-11-24T05:33:44.343Z,2.75
2022-11-24T05:36:36.475Z,2.77
2022-11-24T05:39:10.074Z,3.11
2022-11-24T05:41:43.197Z,3.09
2022-11-24T05:44:16.595Z,2.83
2022-11-24T05:46:48.487Z,2.77
2022-11-24T05:49:50.465Z,2.80
2022-11-24T05:52:22.575Z,3.09
2022-11-24T05:54:54.836Z,2.77
2022-11-24T05:57:26.626Z,2.59
2022-11-24T05:59:59.146Z,2.70
2022-11-24T06:02:31.155Z,2.72
2022-11-24T06:05:06.624Z,2.77
2022-11-24T06:07:38.600Z,2.66
2022-11-24T06:10:10.979Z,2.52
2022-11-24T06:12:42.771Z,2.77
2022-11-24T06:15:15.001Z,2.38
2022-11-24T06:17:46.808Z,2.68
2022-11-24T06:20:27.020Z,2.68
2022-11-24T06:23:01.557Z,2.73
2022-11-24T06:25:34.135Z,2.43
2022-11-24T06:28:13.576Z,2.51
2022-11-24T06:30:49.474Z,2.61
2022-11-24T06:33:21.140Z,2.90
2022-11-24T06:35:55.575Z,2.69
2022-11-24T06:38:26.956Z,2.50
2022-11-24T06:41:03.343Z,2.39
2022-11-24T06:43:35.193Z,2.65
2022-11-24T06:46:07.962Z,2.25
2022-11-24T06:48:39.693Z,2.33
2022-11-24T06:51:16.113Z,2.63
2022-11-24T06:53:48.990Z,2.57
2022-11-24T06:56:23.348Z,2.39
2022-11-24T06:58:56.232Z,2.45
2022-11-24T07:01:29.876Z,2.37
2022-11-24T07:04:03.449Z,2.71
2022-11-24T07:06:40.247Z,2.75
2022-11-24T07:09:12.522Z,2.77
2022-11-24T07:11:47.529Z,2.74
2022-11-24T07:14:19.360Z,2.61
2022-11-24T07:16:53.756Z,2.57
2022-11-24T07:19:26.037Z,2.58
2022-11-24T07:22:00.746Z,2.81
2022-11-24T07:24:36.511Z,2.63
2022-11-24T07:27:10.088Z,2.77
2022-11-24T07:29:41.724Z,3.00
2022-11-24T07:32:15.782Z,2.86
2022-11-24T07:34:48.744Z,2.74
2022-11-24T07:37:31.489Z,2.68
2022-11-24T07:40:05.049Z,2.78
2022-11-24T07:42:37.422Z,2.96
2022-11-24T07:45:11.953Z,3.00
2022-11-24T07:47:44.946Z,2.95
2022-11-24T07:50:17.023Z,3.03
2022-11-24T07:55:38.239Z,3.23
2022-11-24T07:58:11.016Z,3.20
2022-11-24T08:00:43.845Z,3.21
2022-11-24T08:03:16.776Z,3.31
2022-11-24T08:06:23.113Z,3.41
2022-11-24T08:08:53.880Z,3.40
2022-11-24T08:11:26.725Z,3.53
2022-11-24T08:14:00.387Z,3.96
2022-11-24T08:16:33.126Z,3.89
2022-11-24T08:19:05.897Z,3.84
2022-11-24T08:21:38.236Z,3.79
2022-11-24T08:24:15.636Z,3.56
2022-11-24T08:26:48.297Z,3.96
2022-11-24T08:29:21.513Z,3.75
2022-11-24T08:31:53.395Z,3.65
2022-11-24T08:34:26.155Z,3.84
2022-11-24T08:36:58.131Z,4.04
2022-11-24T08:39:32.969Z,3.88
2022-11-24T08:42:04.943Z,4.00
2022-11-24T08:44:36.859Z,4.08
2022-11-24T08:47:08.800Z,3.83
2022-11-24T08:49:40.501Z,3.64
2022-11-24T08:52:15.606Z,3.83
2022-11-24T08:54:50.616Z,3.99
2022-11-24T08:57:22.112Z,3.92
2022-11-24T08:59:54.288Z,3.72
2022-11-24T09:02:25.491Z,3.77
2022-11-24T09:04:57.353Z,4.19
2022-11-24T09:07:28.942Z,4.22
2022-11-24T09:10:03.443Z,4.43
2022-11-24T09:12:34.807Z,4.32
2022-11-24T09:15:07.551Z,4.44
2022-11-24T09:17:39.768Z,4.29
2022-11-24T09:20:12.027Z,4.41
2022-11-24T09:22:44.785Z,4.60
2022-11-24T09:25:19.315Z,4.71
2022-11-24T09:27:50.512Z,4.65
2022-11-24T09:30:25.182Z,4.85
2022-11-24T09:32:58.708Z,4.79
2022-11-24T09:35:30.811Z,4.97
2022-11-24T09:38:02.439Z,4.93
2022-11-24T09:40:36.838Z,5.31
2022-11-24T09:43:15.810Z,5.40
2022-11-24T09:46:05.600Z,5.31
2022-11-24T09:48:41.735Z,5.40
2022-11-24T09:51:16.739Z,4.95
2022-11-24T09:53:51.606Z,4.68
2022-11-24T09:56:28.603Z,5.06
2022-11-24T09:59:04.894Z,5.15
2022-11-24T10:01:40.375Z,5.44
2022-11-24T10:04:21.616Z,5.47
2022-11-24T10:07:01.970Z,5.63
2022-11-24T10:09:56.355Z,5.81
2022-11-24T10:12:44.198Z,5.68
2022-11-24T10:15:32.456Z,5.26
2022-11-24T10:18:49.816Z,5.33
2022-11-24T10:21:44.325Z,5.44
2022-11-24T10:24:43.431Z,5.33
2022-11-24T10:27:20.035Z,5.00
2022-11-24T10:29:56.377Z,5.32
2022-11-24T10:32:31.066Z,5.80
2022-11-24T10:35:15.886Z,5.70
2022-11-24T10:37:55.359Z,5.86
2022-11-24T10:43:32.094Z,5.73
2022-11-24T10:46:15.191Z,5.89
2022-11-24T10:48:51.634Z,5.82
2022-11-24T10:51:51.747Z,6.18
2022-11-24T10:54:26.691Z,6.33
2022-11-24T10:56:59.493Z,6.10
2022-11-24T10:59:38.841Z,6.36
2022-11-24T11:02:35.896Z,6.59
2022-11-24T11:05:31.607Z,6.67
2022-11-24T11:08:23.136Z,7.00
2022-11-24T11:11:23.001Z,6.79
2022-11-24T11:14:03.806Z,6.57
2022-11-24T11:16:41.054Z,6.61
2022-11-24T11:19:48.998Z,6.62
2022-11-24T11:22:28.218Z,6.88
2022-11-24T11:25:21.968Z,7.36
2022-11-24T11:27:54.749Z,7.26
2022-11-24T11:36:21.923Z,7.35
2022-11-24T11:38:54.360Z,6.99
2022-11-24T11:41:34.431Z,7.05
2022-11-24T11:44:24.835Z,7.18
2022-11-24T11:47:01.735Z,7.20
2022-11-24T11:49:46.042Z,6.95
2022-11-24T11:52:54.320Z,6.91
2022-11-24T11:55:37.171Z,7.10
2022-11-24T11:58:39.071Z,7.14
2022-11-24T12:01:26.513Z,7.24
2022-11-24T12:04:17.319Z,7.29
2022-11-24T12:07:14.332Z,7.17
2022-11-24T12:10:02.038Z,7.26
2022-11-24T12:13:05.006Z,7.16
2022-11-24T12:15:43.922Z,7.35
2022-11-24T12:18:56.350Z,7.43
2022-11-24T12:21:29.325Z,7.42
2022-11-24T12:24:14.250Z,7.34
2022-11-24T12:26:55.094Z,7.13
2022-11-24T12:29:57.330Z,7.31
2022-11-24T12:32:47.892Z,7.55
2022-11-24T12:35:29.890Z,7.65
2022-11-24T12:38:14.893Z,7.73
2022-11-24T12:44:02.170Z,7.60
2022-11-24T12:46:45.358Z,7.79
2022-11-24T12:49:39.385Z,8.19
2022-11-24T12:52:24.727Z,8.09
2022-11-24T12:54:59.455Z,8.13
2022-11-24T12:57:37.646Z,8.09
2022-11-24T13:00:22.994Z,8.09
2022-11-24T13:03:20.624Z,7.88
2022-11-24T13:06:01.086Z,7.54
2022-11-24T13:08:35.118Z,7.85
2022-11-24T13:11:43.152Z,7.91
2022-11-24T13:14:22.075Z,7.80
2022-11-24T13:19:55.835Z,8.32
2022-11-24T13:22:29.965Z,8.02
2022-11-24T13:25:21.835Z,8.23
2022-11-24T13:27:58.074Z,8.06
2022-11-24T13:31:13.251Z,7.66
2022-11-24T13:33:49.238Z,7.52
2022-11-24T13:36:37.522Z,7.95
2022-11-24T13:39:23.894Z,7.72
2022-11-24T13:42:06.113Z,7.57
2022-11-24T13:44:58.835Z,7.51
2022-11-24T13:47:43.492Z,7.88
2022-11-24T13:50:27.055Z,7.75
2022-11-24T13:53:21.113Z,8.05
2022-11-24T13:56:01.956Z,7.87
2022-11-24T13:58:41.440Z,7.97
2022-11-24T14:01:25.521Z,7.58
2022-11-24T14:04:30.621Z,8.08
2022-11-24T14:07:09.995Z,8.03
2022-11-24T14:09:47.237Z,8.08
2022-11-24T14:12:22.310Z,7.79
2022-11-24T14:14:56.782Z,7.51
2022-11-24T14:17:31.903Z,7.71
2022-11-24T14:20:25.664Z,7.57
2022-11-24T14:23:01.422Z,7.56
2022-11-24T14:25:37.464Z,7.60
2022-11-24T14:28:24.089Z,8.03
2022-11-24T14:31:28.403Z,7.91
2022-11-24T14:34:21.684Z,7.66
2022-11-24T14:36:55.523Z,7.74
2022-11-24T14:39:31.988Z,7.56
2022-11-24T14:42:08.911Z,7.41
2022-11-24T14:44:51.049Z,7.61
2022-11-24T14:47:32.220Z,7.70
2022-11-24T14:50:15.473Z,7.49
2022-11-24T14:52:52.751Z,7.66
2022-11-24T14:55:35.792Z,7.40
2022-11-24T14:58:24.484Z,7.31
2022-11-24T15:01:14.047Z,7.58
2022-11-24T15:03:47.116Z,7.49
2022-11-24T15:06:23.157Z,7.51
2022-11-24T15:08:56.152Z,7.26
2022-11-24T15:11:34.119Z,7.28
2022-11-24T15:14:06.893Z,7.47
2022-11-24T15:16:44.083Z,7.32
2022-11-24T15:19:20.265Z,7.28
2022-11-24T15:21:53.491Z,7.34
2022-11-24T15:24:26.012Z,7.26
2022-11-24T15:27:08.263Z,7.63
2022-11-24T15:29:40.940Z,7.50
2022-11-24T15:32:18.637Z,7.40
2022-11-24T15:34:51.466Z,7.30
2022-11-24T15:37:24.768Z,6.88
2022-11-24T15:39:57.436Z,6.77
2022-11-24T15:42:33.178Z,6.79
2022-11-24T15:45:06.176Z,6.91
2022-11-24T15:47:39.383Z,7.22
2022-11-24T15:50:13.221Z,7.42
2022-11-24T15:52:46.574Z,7.22
2022-11-24T15:55:21.916Z,7.06
2022-11-24T15:57:57.695Z,6.97
2022-11-24T16:00:30.246Z,7.02
2022-11-24T16:03:24.065Z,7.52
2022-11-24T16:05:59.583Z,7.34
2022-11-24T16:08:32.671Z,7.24
2022-11-24T16:11:05.276Z,7.18
2022-11-24T16:13:41.113Z,7.12
2022-11-24T16:16:15.785Z,6.87
2022-11-24T16:18:49.076Z,6.98
2022-11-24T16:21:22.034Z,7.03
2022-11-24T16:23:55.164Z,6.95
2022-11-24T16:26:27.768Z,6.98
2022-11-24T16:29:03.703Z,7.16
2022-11-24T16:31:36.669Z,7.15
2022-11-24T16:34:09.853Z,6.95
2022-11-24T16:36:42.537Z,6.96
2022-11-24T16:39:15.573Z,6.92
2022-11-24T16:41:48.254Z,6.87
2022-11-24T16:44:24.099Z,6.87
2022-11-24T16:46:57.458Z,6.76
2022-11-24T16:49:30.493Z,6.61
2022-11-24T16:52:03.341Z,6.48
2022-11-24T16:54:36.283Z,6.43
2022-11-24T16:57:14.582Z,6.43
2022-11-24T16:59:50.571Z,6.43
2022-11-24T17:02:23.281Z,6.46
2022-11-24T17:04:56.615Z,6.44
2022-11-24T17:07:29.152Z,6.72
2022-11-24T17:10:02.212Z,6.33
2022-11-24T17:12:34.656Z,6.25
2022-11-24T17:15:45.302Z,6.30
2022-11-24T17:21:03.209Z,6.57
2022-11-24T17:23:38.720Z,6.30
2022-11-24T17:26:15.000Z,6.25
2022-11-24T17:28:47.998Z,6.44
2022-11-24T17:31:25.771Z,6.42
2022-11-24T17:33:59.810Z,6.37
2022-11-24T17:36:35.777Z,6.62
2022-11-24T17:39:29.023Z,6.57
2022-11-24T17:42:01.527Z,6.60
2022-11-24T17:44:33.618Z,6.50
2022-11-24T17:47:09.020Z,6.37
2022-11-24T17:49:40.445Z,6.10
2022-11-24T17:52:14.261Z,5.96
2022-11-24T17:54:57.074Z,6.10
2022-11-24T17:57:29.519Z,6.59
2022-11-24T18:00:01.497Z,6.38
2022-11-24T18:02:36.134Z,6.05
2022-11-24T18:05:08.377Z,6.29
2022-11-24T18:07:40.444Z,6.42
2022-11-24T18:10:15.220Z,6.46
2022-11-24T18:12:50.218Z,6.51
2022-11-24T18:15:21.873Z,6.38
2022-11-24T18:17:58.253Z,6.23
2022-11-24T18:20:30.459Z,6.47
2022-11-24T18:23:06.137Z,6.38
2022-11-24T18:25:39.973Z,6.27
2022-11-24T18:28:12.653Z,6.61
2022-11-24T18:30:46.474Z,6.69
2022-11-24T18:33:41.773Z,6.66
2022-11-24T18:36:16.454Z,6.55
2022-11-24T18:38:49.114Z,6.31
2022-11-24T18:41:21.356Z,6.62
2022-11-24T18:43:53.616Z,6.35
2022-11-24T18:46:25.443Z,6.18
2022-11-24T18:49:00.315Z,6.20
2022-11-24T18:51:32.634Z,6.16
2022-11-24T18:54:05.783Z,6.00
2022-11-24T18:56:38.256Z,6.16
2022-11-24T18:59:10.915Z,6.16
2022-11-24T19:01:43.767Z,6.10
2022-11-24T19:04:18.995Z,6.15
2022-11-24T19:06:51.313Z,6.07
2022-11-24T19:09:25.838Z,6.09
2022-11-24T19:11:58.253Z,6.05
2022-11-24T19:14:30.913Z,6.05
2022-11-24T19:17:04.820Z,6.07
2022-11-24T19:19:40.145Z,5.82
2022-11-24T19:22:13.647Z,5.93
2022-11-24T19:24:47.088Z,5.86
2022-11-24T19:27:21.557Z,5.86
2022-11-24T19:29:55.468Z,5.83
2022-11-24T19:32:27.713Z,5.84
2022-11-24T19:35:03.113Z,5.94
2022-11-24T19:37:35.272Z,5.95
2022-11-24T19:40:09.812Z,5.85
2022-11-24T19:42:42.059Z,5.66
2022-11-24T19:45:15.163Z,5.45
2022-11-24T19:47:47.973Z,5.39
2022-11-24T19:50:23.659Z,5.50
2022-11-24T19:52:55.332Z,5.40
2022-11-24T19:55:31.192Z,5.36
2022-11-24T19:58:03.280Z,5.56
2022-11-24T20:00:35.973Z,5.37
2022-11-24T20:03:08.233Z,5.55
2022-11-24T20:05:43.553Z,5.55
2022-11-24T20:08:15.613Z,5.54
2022-11-24T20:10:48.212Z,5.30
2022-11-24T20:13:20.172Z,5.46
2022-11-24T20:15:52.754Z,5.37
2022-11-24T20:18:25.713Z,5.16
2022-11-24T20:21:05.413Z,5.22
2022-11-24T20:23:37.886Z,5.24
2022-11-24T20:26:12.925Z,5.26
2022-11-24T20:28:45.766Z,5.23
2022-11-24T20:31:22.770Z,5.12
2022-11-24T20:33:56.178Z,5.11
2022-11-24T20:36:31.997Z,5.32
2022-11-24T20:39:05.208Z,5.28
2022-11-24T20:41:39.465Z,5.21
2022-11-24T20:44:13.820Z,5.04
2022-11-24T20:46:48.643Z,5.01
2022-11-24T20:49:23.456Z,5.02
2022-11-24T20:51:58.276Z,5.06
2022-11-24T20:54:29.758Z,4.89
2022-11-24T20:57:01.633Z,5.03
2022-11-24T20:59:32.807Z,5.07
2022-11-24T21:02:06.857Z,4.82
2022-11-24T21:04:38.351Z,4.94
2022-11-24T21:07:14.985Z,4.87
2022-11-24T21:09:46.304Z,4.88
2022-11-24T21:12:18.109Z,4.84
2022-11-24T21:14:49.352Z,5.11
2022-11-24T21:17:23.270Z,4.95
2022-11-24T21:20:00.969Z,5.30
2022-11-24T21:22:35.885Z,5.40
2022-11-24T21:25:07.597Z,5.13
2022-11-24T21:27:40.414Z,5.12
2022-11-24T21:30:13.247Z,4.95
2022-11-24T21:32:45.294Z,5.15
2022-11-24T21:35:16.816Z,5.11
2022-11-24T21:37:51.164Z,5.34
2022-11-24T21:40:22.716Z,5.12
2022-11-24T21:42:54.383Z,5.06
2022-11-24T21:45:25.770Z,5.23
2022-11-24T21:47:57.813Z,5.19
2022-11-24T21:50:29.286Z,4.95
2022-11-24T21:53:04.551Z,4.94
2022-11-24T21:55:36.268Z,5.06
2022-11-24T21:58:09.487Z,5.25
2022-11-24T22:00:40.976Z,5.29
2022-11-24T22:03:13.115Z,5.39
2022-11-24T22:05:47.373Z,5.33
2022-11-24T22:08:22.051Z,5.36
2022-11-24T22:10:53.845Z,5.15
2022-11-24T22:13:25.663Z,5.39
2022-11-24T22:16:05.723Z,5.65
2022-11-24T22:18:39.338Z,5.44
2022-11-24T22:21:14.064Z,5.63
2022-11-24T22:23:49.604Z,5.90
2022-11-24T22:26:24.489Z,6.08
2022-11-24T22:28:58.004Z,6.10
2022-11-24T22:31:34.507Z,5.92
2022-11-24T22:34:06.602Z,5.90
2022-11-24T22:36:38.937Z,5.70
2022-11-24T22:39:15.673Z,5.72
2022-11-24T22:41:47.528Z,5.84
2022-11-24T22:44:19.223Z,5.82
2022-11-24T22:46:50.804Z,6.04
2022-11-24T22:49:24.109Z,6.02
2022-11-24T22:51:55.728Z,6.35
2022-11-24T22:54:30.255Z,6.27
2022-11-24T22:57:01.744Z,5.98
2022-11-24T22:59:33.689Z,5.81
2022-11-24T23:02:05.118Z,5.76
2022-11-24T23:04:37.179Z,5.85
2022-11-24T23:07:10.117Z,6.06
2022-11-24T23:09:44.344Z,5.99
2022-11-24T23:12:15.566Z,6.29
2022-11-24T23:14:47.332Z,6.43
2022-11-24T23:17:18.682Z,6.26
2022-11-24T23:19:50.653Z,5.95
2022-11-24T23:22:21.926Z,5.79
2022-11-24T23:24:59.192Z,5.94
2022-11-24T23:27:30.435Z,6.08
2022-11-24T23:30:02.393Z,6.07
2022-11-24T23:32:33.836Z,6.02
2022-11-24T23:35:10.911Z,5.90
2022-11-24T23:38:06.391Z,6.12
2022-11-24T23:40:39.274Z,6.19
2022-11-24T23:43:10.478Z,6.15
2022-11-24T23:45:44.381Z,6.48
2022-11-24T23:48:15.725Z,6.61
2022-11-24T23:50:47.749Z,6.20
2022-11-24T23:53:19.126Z,6.33
2022-11-24T23:55:59.262Z,6.42
2022-11-24T23:58:34.467Z,6.58
